Time;durP1;ratioP1;P1;durP2;ratioP2;P2;SDS_P1;SDS_P2;PMS_P1;PMS_P2;Temp;Humidity;BMP_temperature;BMP_pressure;BME280_temperature;BME280_humidity;BME280_pressure;Samples;Min_cycle;Max_cycle;Signal;HPM_P1;HPM_P2
2022/03/01 00:00:24;;;;;;;13.80;8.00;;;;;;;;;;5049257;28;20444;-89
2022/03/01 00:02:51;;;;;;;15.10;9.40;;;;;;;;;;5040328;28;20447;-88
2022/03/01 00:05:18;;;;;;;20.67;8.30;;;;;;;;;;5039719;28;20495;-89
2022/03/01 00:07:45;;;;;;;14.67;9.47;;;;;;;;;;5037647;28;20452;-89
2022/03/01 00:10:12;;;;;;;16.47;9.73;;;;;;;;;;5036130;28;20451;-89
2022/03/01 00:12:41;;;;;;;16.47;9.03;;;-1.00;99.90;;;;;;5036939;28;20802;-89
2022/03/01 00:15:08;;;;;;;14.10;8.53;;;-1.00;99.90;;;;;;5036358;28;20431;-89
2022/03/01 00:17:36;;;;;;;18.53;8.60;;;;;;;;;;5036337;28;20454;-89
2022/03/01 00:20:03;;;;;;;15.37;8.37;;;;;;;;;;5038556;28;20809;-89
2022/03/01 00:22:30;;;;;;;11.80;7.07;;;;;;;;;;5039146;28;20474;-89
2022/03/01 00:24:57;;;;;;;15.50;8.77;;;;;;;;;;5004683;28;20502;-89
2022/03/01 00:27:25;;;;;;;13.73;8.00;;;;;;;;;;5038365;28;20483;-89
2022/03/01 00:29:53;;;;;;;15.10;8.43;;;;;;;;;;5036905;28;20447;-89
2022/03/01 00:32:20;;;;;;;16.33;8.87;;;;;;;;;;5035957;28;20447;-88
2022/03/01 00:34:47;;;;;;;10.97;8.00;;;;;;;;;;5032328;28;20463;-88
2022/03/01 00:37:16;;;;;;;12.97;7.83;;;;;;;;;;5037242;28;20459;-90
2022/03/01 00:39:43;;;;;;;14.03;7.47;;;;;;;;;;5038560;28;20455;-88
2022/03/01 00:42:10;;;;;;;16.20;8.33;;;;;;;;;;5040321;28;20455;-88
2022/03/01 00:44:37;;;;;;;16.53;8.17;;;;;;;;;;5040220;28;20487;-88
2022/03/01 00:47:06;;;;;;;14.80;9.07;;;-1.40;99.90;;;;;;5039748;28;20458;-89
2022/03/01 00:49:34;;;;;;;12.80;7.40;;;;;;;;;;5037136;28;20450;-90
2022/03/01 00:52:04;;;;;;;13.43;7.53;;;-1.40;99.90;;;;;;5037891;28;20473;-88
2022/03/01 00:54:33;;;;;;;16.17;8.40;;;;;;;;;;5039978;28;20447;-89
2022/03/01 00:57:00;;;;;;;13.33;6.30;;;;;;;;;;5040290;28;20439;-89
2022/03/01 00:59:27;;;;;;;14.53;7.80;;;;;;;;;;5038094;28;20794;-88
2022/03/01 01:01:54;;;;;;;14.30;6.03;;;;;;;;;;5036283;28;20446;-89
2022/03/01 01:04:23;;;;;;;17.93;7.90;;;-1.50;99.90;;;;;;5039411;28;20495;-88
2022/03/01 01:06:50;;;;;;;18.70;8.47;;;;;;;;;;5035812;28;20455;-89
2022/03/01 01:09:17;;;;;;;18.80;8.40;;;;;;;;;;5036747;28;20915;-90
2022/03/01 01:11:44;;;;;;;12.20;7.53;;;;;;;;;;5035444;28;20451;-89
2022/03/01 01:14:12;;;;;;;14.70;7.87;;;;;;;;;;5035141;28;20456;-89
2022/03/01 01:16:39;;;;;;;11.50;6.87;;;;;;;;;;5037322;28;20452;-89
2022/03/01 01:19:06;;;;;;;15.27;8.80;;;;;;;;;;5037006;28;20814;-89
2022/03/01 01:24:19;;;;;;;10.93;6.20;;;;;;;;;;5036654;28;20570;-89
2022/03/01 01:26:46;;;;;;;15.00;7.30;;;;;;;;;;5039628;28;20447;-90
2022/03/01 01:29:13;;;;;;;13.93;7.80;;;;;;;;;;5043114;28;20529;-90
2022/03/01 01:31:40;;;;;;;16.80;8.50;;;;;;;;;;5040651;28;20447;-90
2022/03/01 01:34:08;;;;;;;12.50;7.23;;;;;;;;;;5040914;28;20426;-88
2022/03/01 01:36:36;;;;;;;17.87;7.27;;;;;;;;;;5045770;28;20435;-89
2022/03/01 01:39:04;;;;;;;17.03;7.57;;;;;;;;;;5043683;28;20436;-89
2022/03/01 01:41:31;;;;;;;15.03;6.50;;;;;;;;;;5040199;28;20442;-88
2022/03/01 01:43:59;;;;;;;14.37;8.10;;;;;;;;;;5040457;28;20451;-89
2022/03/01 01:46:26;;;;;;;11.60;6.97;;;;;;;;;;5040251;28;20406;-89
2022/03/01 01:48:53;;;;;;;13.10;7.70;;;;;;;;;;5040572;28;20455;-89
2022/03/01 01:51:20;;;;;;;15.93;7.73;;;;;;;;;;5040181;28;20463;-88
2022/03/01 01:53:48;;;;;;;16.03;7.73;;;-2.00;99.90;;;;;;5039102;28;20443;-89
2022/03/01 01:56:15;;;;;;;16.23;7.97;;;;;;;;;;5040405;28;20458;-89
2022/03/01 01:58:43;;;;;;;15.90;7.57;;;-2.10;99.90;;;;;;5042371;28;20459;-89
2022/03/01 02:01:10;;;;;;;11.97;7.20;;;;;;;;;;5041710;28;20443;-89
2022/03/01 02:03:37;;;;;;;15.23;9.30;;;;;;;;;;5042333;28;20439;-89
2022/03/01 02:06:05;;;;;;;14.70;7.87;;;;;;;;;;5042035;28;20490;-90
2022/03/01 02:08:32;;;;;;;12.10;7.30;;;;;;;;;;5040921;28;20451;-88
2022/03/01 02:11:01;;;;;;;14.60;7.97;;;;;;;;;;5042253;28;20822;-90
2022/03/01 02:13:28;;;;;;;15.10;7.47;;;-2.10;99.90;;;;;;5042797;28;20451;-89
2022/03/01 02:15:56;;;;;;;14.40;6.70;;;;;;;;;;5042918;28;20447;-88
2022/03/01 02:18:23;;;;;;;15.83;8.67;;;-1.90;99.90;;;;;;5040130;28;20447;-88
2022/03/01 02:20:52;;;;;;;16.00;8.63;;;;;;;;;;5043589;28;20444;-90
2022/03/01 02:23:19;;;;;;;17.30;7.63;;;;;;;;;;5042530;28;20447;-89
2022/03/01 02:25:46;;;;;;;12.67;7.10;;;;;;;;;;5042743;28;20483;-89
2022/03/01 02:28:13;;;;;;;12.23;6.73;;;;;;;;;;5041630;28;20479;-89
2022/03/01 02:30:40;;;;;;;15.27;8.03;;;;;;;;;;5040210;28;20443;-89
2022/03/01 02:33:07;;;;;;;12.67;7.73;;;;;;;;;;5043875;28;20458;-91
2022/03/01 02:35:35;;;;;;;13.40;7.90;;;;;;;;;;5061012;28;20439;-92
2022/03/01 02:38:03;;;;;;;20.20;8.47;;;;;;;;;;5047968;28;20447;-91
2022/03/01 02:40:30;;;;;;;15.17;7.23;;;;;;;;;;5039308;28;20459;-89
2022/03/01 02:42:58;;;;;;;16.50;7.77;;;;;;;;;;5038160;28;20470;-90
2022/03/01 02:45:25;;;;;;;16.73;8.57;;;;;;;;;;5037584;28;20498;-90
2022/03/01 02:47:52;;;;;;;13.80;8.57;;;;;;;;;;5040257;28;20439;-89
2022/03/01 02:50:19;;;;;;;16.23;9.30;;;;;;;;;;5037445;28;20471;-90
2022/03/01 02:52:46;;;;;;;22.90;9.97;;;;;;;;;;5037307;28;20475;-91
2022/03/01 02:55:15;;;;;;;12.60;7.63;;;-2.20;99.90;;;;;;5037371;28;20462;-89
2022/03/01 02:57:42;;;;;;;13.57;7.53;;;;;;;;;;5037439;28;20821;-91
2022/03/01 03:00:11;;;;;;;19.23;8.30;;;-1.80;99.90;;;;;;5037231;28;20451;-92
2022/03/01 03:02:38;;;;;;;22.93;8.17;;;;;;;;;;5037255;28;20454;-89
2022/03/01 03:05:07;;;;;;;16.43;7.80;;;-2.40;99.90;;;;;;5037303;28;20493;-89
2022/03/01 03:07:34;;;;;;;20.33;8.87;;;;;;;;;;5037386;28;20506;-92
2022/03/01 03:10:01;;;;;;;16.90;7.70;;;;;;;;;;5039395;28;20439;-92
2022/03/01 03:12:30;;;;;;;14.90;8.00;;;;;;;;;;5034069;28;20440;-89
2022/03/01 03:14:57;;;;;;;14.37;7.73;;;;;;;;;;5030703;28;20497;-90
2022/03/01 03:17:24;;;;;;;16.13;8.40;;;;;;;;;;5038873;28;20791;-88
2022/03/01 03:19:52;;;;;;;13.07;8.27;;;;;;;;;;5036118;28;20502;-90
2022/03/01 03:22:19;;;;;;;14.37;7.87;;;;;;;;;;5036283;28;20451;-92
2022/03/01 03:24:46;;;;;;;13.57;7.63;;;;;;;;;;5038086;28;20502;-90
2022/03/01 03:27:13;;;;;;;18.03;8.50;;;;;;;;;;5036055;28;20460;-93
2022/03/01 03:29:42;;;;;;;14.43;7.23;;;;;;;;;;5036248;28;20452;-92
2022/03/01 03:32:09;;;;;;;13.60;7.77;;;;;;;;;;5033373;28;20931;-93
2022/03/01 03:34:36;;;;;;;15.70;7.20;;;;;;;;;;5035361;28;20451;-91
2022/03/01 03:37:04;;;;;;;11.17;6.97;;;;;;;;;;5035612;28;20938;-92
2022/03/01 03:39:31;;;;;;;11.77;7.10;;;;;;;;;;5037119;28;20439;-91
2022/03/01 03:41:58;;;;;;;16.33;7.80;;;;;;;;;;5033167;28;20444;-89
2022/03/01 03:44:25;;;;;;;13.23;7.80;;;;;;;;;;5035839;28;20455;-91
2022/03/01 03:46:54;;;;;;;12.20;7.50;;;-2.60;99.90;;;;;;5036119;28;20487;-94
2022/03/01 03:49:22;;;;;;;15.57;8.23;;;;;;;;;;5034904;28;20452;-95
2022/03/01 03:51:49;;;;;;;15.23;6.80;;;;;;;;;;5038908;28;20440;-90
2022/03/01 03:54:17;;;;;;;16.10;7.57;;;;;;;;;;5038611;28;20493;-92
2022/03/01 03:56:44;;;;;;;14.10;7.30;;;;;;;;;;5037457;28;20443;-92
2022/03/01 03:59:11;;;;;;;12.13;7.50;;;;;;;;;;5036422;28;20812;-91
2022/03/01 04:01:38;;;;;;;16.23;8.50;;;;;;;;;;5036443;28;20447;-92
2022/03/01 04:04:08;;;;;;;13.30;7.90;;;-2.80;99.90;;;;;;5035775;28;20450;-93
2022/03/01 04:06:35;;;;;;;17.07;8.77;;;;;;;;;;5035007;28;20473;-89
2022/03/01 04:09:02;;;;;;;15.43;8.90;;;;;;;;;;5034589;28;20443;-89
2022/03/01 04:11:29;;;;;;;21.30;8.00;;;;;;;;;;5032506;28;20452;-92
2022/03/01 04:13:57;;;;;;;15.20;8.90;;;;;;;;;;5035133;28;20803;-89
2022/03/01 04:16:24;;;;;;;14.70;7.73;;;;;;;;;;5035533;28;20543;-89
2022/03/01 04:18:51;;;;;;;18.97;9.80;;;;;;;;;;5035262;28;20928;-93
2022/03/01 04:21:19;;;;;;;13.90;7.77;;;-2.60;99.90;;;;;;5035084;28;20966;-91
2022/03/01 04:23:46;;;;;;;14.00;7.50;;;;;;;;;;5032713;28;20451;-94
2022/03/01 04:26:13;;;;;;;13.10;6.70;;;;;;;;;;5034933;28;20495;-92
2022/03/01 04:28:41;;;;;;;16.40;8.90;;;;;;;;;;5035087;28;20475;-92
2022/03/01 04:31:08;;;;;;;13.20;7.73;;;;;;;;;;5035326;28;20444;-92
2022/03/01 04:33:35;;;;;;;15.03;8.63;;;;;;;;;;5037228;28;20498;-94
2022/03/01 04:36:02;;;;;;;17.70;8.37;;;;;;;;;;5034566;28;20465;-91
2022/03/01 04:38:33;;;;;;;14.33;7.50;;;;;;;;;;5033428;28;20474;-92
2022/03/01 04:41:00;;;;;;;16.50;7.70;;;;;;;;;;5035095;28;20451;-90
2022/03/01 04:43:27;;;;;;;14.33;7.50;;;;;;;;;;5035272;28;20451;-91
2022/03/01 04:45:54;;;;;;;11.20;6.80;;;;;;;;;;5035556;28;20494;-91
2022/03/01 04:48:22;;;;;;;17.67;9.30;;;;;;;;;;5037370;28;20940;-90
2022/03/01 04:50:49;;;;;;;17.70;7.60;;;;;;;;;;5034802;28;20421;-88
2022/03/01 04:53:17;;;;;;;14.77;8.30;;;;;;;;;;5033817;28;20483;-87
2022/03/01 04:55:45;;;;;;;14.97;7.93;;;;;;;;;;5035099;28;20447;-90
2022/03/01 04:58:13;;;;;;;17.83;8.70;;;;;;;;;;5034454;28;20525;-89
2022/03/01 05:00:40;;;;;;;11.77;7.23;;;;;;;;;;5034787;28;20462;-93
2022/03/01 05:03:07;;;;;;;14.23;7.60;;;;;;;;;;5034394;28;20443;-87
2022/03/01 05:05:34;;;;;;;13.43;7.83;;;;;;;;;;5034137;28;20478;-87
2022/03/01 05:08:01;;;;;;;11.17;7.17;;;;;;;;;;5036369;28;20857;-87
2022/03/01 05:10:30;;;;;;;18.23;8.10;;;;;;;;;;5034689;28;20526;-89
2022/03/01 05:13:01;;;;;;;13.97;6.90;;;-2.20;99.90;;;;;;5034207;28;20441;-89
2022/03/01 05:15:29;;;;;;;18.00;7.80;;;-2.30;99.90;;;;;;5034308;28;20455;-89
2022/03/01 05:17:57;;;;;;;19.10;6.93;;;-2.40;99.90;;;;;;5035036;28;20458;-91
2022/03/01 05:20:25;;;;;;;13.80;7.60;;;;;;;;;;5036391;28;20433;-89
2022/03/01 05:22:53;;;;;;;11.33;7.33;;;;;;;;;;5039090;28;20527;-91
2022/03/01 05:25:22;;;;;;;14.37;7.40;;;-2.50;99.90;;;;;;5035900;28;20451;-92
2022/03/01 05:27:51;;;;;;;10.20;6.17;;;-2.60;99.90;;;;;;5035123;28;20487;-90
2022/03/01 05:30:20;;;;;;;16.33;6.80;;;-2.80;99.90;;;;;;5035728;28;20456;-92
2022/03/01 05:32:50;;;;;;;12.17;7.97;;;-2.80;99.90;;;;;;5035710;28;20439;-93
2022/03/01 05:35:18;;;;;;;13.00;7.97;;;-2.80;99.90;;;;;;5036201;28;20473;-92
2022/03/01 05:37:47;;;;;;;14.20;7.20;;;-2.90;99.90;;;;;;5038031;28;20994;-92
2022/03/01 05:40:14;;;;;;;14.53;6.43;;;;;;;;;;5038519;28;20546;-90
2022/03/01 05:42:42;;;;;;;15.43;7.60;;;-2.90;99.90;;;;;;5040167;28;20451;-95
2022/03/01 05:45:11;;;;;;;12.20;7.07;;;-3.00;99.90;;;;;;5039883;28;20421;-90
2022/03/01 05:47:39;;;;;;;11.77;7.47;;;-3.10;99.90;;;;;;5035500;28;20456;-93
2022/03/01 05:50:09;;;;;;;14.97;7.80;;;-3.10;99.90;;;;;;5030837;28;20432;-93
2022/03/01 05:52:36;;;;;;;11.60;6.57;;;;;;;;;;5039970;28;20830;-93
2022/03/01 05:55:03;;;;;;;12.10;7.23;;;;;;;;;;5039990;28;20474;-88
2022/03/01 05:57:30;;;;;;;14.07;8.30;;;;;;;;;;5036782;28;20448;-87
2022/03/01 05:59:58;;;;;;;16.00;8.17;;;-3.30;99.90;;;;;;5036781;28;20947;-89
2022/03/01 06:02:26;;;;;;;14.87;8.03;;;-3.40;99.90;;;;;;5036266;28;20447;-89
2022/03/01 06:04:54;;;;;;;16.20;8.50;;;;;;;;;;5036610;28;20439;-92
2022/03/01 06:07:22;;;;;;;16.23;7.37;;;;;;;;;;5036969;28;21022;-93
2022/03/01 06:09:49;;;;;;;13.10;7.10;;;;;;;;;;5036295;28;20447;-89
2022/03/01 06:12:16;;;;;;;18.17;8.60;;;;;;;;;;5038360;28;20474;-90
2022/03/01 06:14:44;;;;;;;11.97;6.33;;;;;;;;;;5042748;28;20450;-93
2022/03/01 06:17:11;;;;;;;16.57;7.10;;;;;;;;;;5045418;28;20458;-90
2022/03/01 06:19:38;;;;;;;12.50;7.73;;;;;;;;;;5043817;28;20538;-93
2022/03/01 06:22:08;;;;;;;11.30;7.30;;;;;;;;;;5045826;28;20447;-93
2022/03/01 06:24:39;;;;;;;19.57;9.00;;;-2.90;99.90;;;;;;5043268;28;21084;-88
2022/03/01 06:27:06;;;;;;;13.47;7.10;;;;;;;;;;5043127;28;20501;-96
2022/03/01 06:29:33;;;;;;;15.40;7.93;;;;;;;;;;5042057;28;20470;-91
2022/03/01 06:32:01;;;;;;;14.43;8.27;;;;;;;;;;5038903;28;20426;-92
2022/03/01 06:34:28;;;;;;;14.47;8.70;;;;;;;;;;5037341;28;20447;-90
2022/03/01 06:36:55;;;;;;;13.87;7.33;;;;;;;;;;5036669;28;20459;-88
2022/03/01 06:39:24;;;;;;;18.27;8.50;;;-1.40;99.90;;;;;;5035583;28;20447;-88
2022/03/01 06:41:51;;;;;;;14.20;8.13;;;;;;;;;;5036458;28;20454;-89
2022/03/01 06:44:18;;;;;;;15.43;9.73;;;;;;;;;;5038952;28;20447;-88
2022/03/01 06:46:46;;;;;;;16.80;8.87;;;;;;;;;;5039352;28;20525;-89
2022/03/01 06:49:13;;;;;;;16.83;9.03;;;;;;;;;;5037329;28;20456;-94
2022/03/01 06:51:40;;;;;;;14.50;8.10;;;;;;;;;;5038119;28;20558;-92
2022/03/01 06:54:07;;;;;;;16.57;8.93;;;;;;;;;;5039259;28;20455;-90
2022/03/01 06:56:35;;;;;;;14.07;8.83;;;-0.50;99.90;;;;;;5044793;28;20977;-88
2022/03/01 06:59:02;;;;;;;16.23;8.83;;;;;;;;;;5043458;28;20443;-87
2022/03/01 07:01:29;;;;;;;19.80;9.33;;;;;;;;;;5041808;28;20470;-86
2022/03/01 07:03:57;;;;;;;13.43;9.37;;;;;;;;;;5041950;28;20463;-93
2022/03/01 07:06:24;;;;;;;16.30;8.70;;;;;;;;;;5037785;28;20482;-88
2022/03/01 07:08:51;;;;;;;15.50;8.90;;;;;;;;;;5034900;28;20452;-86
2022/03/01 07:11:19;;;;;;;18.17;9.10;;;;;;;;;;5038177;28;20474;-86
2022/03/01 07:13:47;;;;;;;11.73;8.67;;;0.50;99.90;;;;;;5037706;28;20965;-88
2022/03/01 07:16:15;;;;;;;15.00;8.80;;;;;;;;;;5036187;28;20463;-88
2022/03/01 07:18:42;;;;;;;13.50;9.10;;;1.00;99.90;;;;;;5036469;28;20447;-88
2022/03/01 07:21:09;;;;;;;13.10;8.33;;;;;;;;;;5035845;28;20459;-90
2022/03/01 07:23:37;;;;;;;12.67;8.93;;;;;;;;;;5034109;28;20480;-89
2022/03/01 07:26:04;;;;;;;13.50;8.80;;;;;;;;;;5030783;28;20920;-88
2022/03/01 07:28:31;;;;;;;16.27;9.93;;;;;;;;;;5032119;28;20475;-92
2022/03/01 07:31:02;;;;;;;14.20;8.47;;;0.80;99.90;;;;;;5039213;28;20447;-88
2022/03/01 07:33:30;;;;;;;16.03;9.10;;;;;;;;;;5032965;28;20436;-87
2022/03/01 07:35:57;;;;;;;13.73;8.90;;;;;;;;;;5021524;28;20449;-90
2022/03/01 07:38:24;;;;;;;13.40;8.93;;;;;;;;;;5018681;28;20476;-90
2022/03/01 07:40:51;;;;;;;16.07;8.40;;;;;;;;;;5021551;28;20500;-94
2022/03/01 07:43:18;;;;;;;13.97;8.83;;;;;;;;;;5020104;28;20449;-87
2022/03/01 07:45:45;;;;;;;14.50;8.33;;;;;;;;;;5017182;28;20460;-87
2022/03/01 07:48:14;;;;;;;11.90;6.73;;;3.10;95.80;;;;;;5016999;28;20502;-86
2022/03/01 07:50:41;;;;;;;23.47;8.40;;;;;;;;;;5021264;28;20495;-89
2022/03/01 07:53:08;;;;;;;13.23;8.00;;;;;;;;;;5014095;28;20440;-88
2022/03/01 07:55:35;;;;;;;14.27;7.67;;;;;;;;;;5015347;28;20463;-87
2022/03/01 07:58:03;;;;;;;14.03;8.20;;;;;;;;;;5022581;28;20440;-88
2022/03/01 08:00:30;;;;;;;15.27;7.47;;;;;;;;;;5018407;28;20448;-90
2022/03/01 08:02:58;;;;;;;16.50;9.20;;;;;;;;;;5016223;28;20445;-92
2022/03/01 08:05:26;;;;;;;15.97;8.50;;;;;;;;;;5016672;28;20932;-91
2022/03/01 08:07:53;;;;;;;11.47;8.00;;;;;;;;;;5017120;28;20514;-90
2022/03/01 08:10:21;;;;;;;13.90;9.00;;;;;;;;;;5015867;28;20437;-90
2022/03/01 08:12:48;;;;;;;13.63;8.17;;;;;;;;;;5016488;28;20456;-90
2022/03/01 08:15:15;;;;;;;13.20;8.70;;;;;;;;;;5015913;28;20452;-92
2022/03/01 08:17:50;;;;;;;14.93;9.47;;;5.10;90.20;;;;;;5018577;28;20783;-88
2022/03/01 08:20:17;;;;;;;13.50;8.70;;;;;;;;;;5015847;28;20448;-88
2022/03/01 08:22:46;;;;;;;10.80;7.90;;;4.80;89.90;;;;;;5016770;28;20456;-89
2022/03/01 08:25:13;;;;;;;15.53;9.13;;;;;;;;;;5023159;28;20455;-92
2022/03/01 08:27:40;;;;;;;12.70;8.30;;;;;;;;;;5017756;28;20503;-88
2022/03/01 08:30:08;;;;;;;14.00;9.20;;;6.20;85.70;;;;;;5015675;28;20444;-86
2022/03/01 08:32:35;;;;;;;12.27;8.77;;;;;;;;;;5012012;28;20444;-91
2022/03/01 08:35:03;;;;;;;14.57;8.50;;;;;;;;;;5030372;28;20444;-90
2022/03/01 08:37:30;;;;;;;11.53;7.80;;;;;;;;;;5017914;28;20459;-92
2022/03/01 08:39:58;;;;;;;14.77;9.23;;;;;;;;;;5014570;28;20452;-93
2022/03/01 08:42:25;;;;;;;13.57;8.03;;;;;;;;;;5015644;28;20445;-91
2022/03/01 08:44:53;;;;;;;13.70;9.13;;;;;;;;;;5016099;28;20452;-94
2022/03/01 08:47:20;;;;;;;20.00;9.97;;;;;;;;;;5054766;28;20493;-91
2022/03/01 08:49:47;;;;;;;14.60;8.80;;;;;;;;;;5054700;28;20461;-93
2022/03/01 08:52:15;;;;;;;14.63;8.50;;;;;;;;;;5045104;28;20490;-89
2022/03/01 08:54:42;;;;;;;13.50;8.20;;;;;;;;;;5034803;28;20447;-91
2022/03/01 08:57:17;;;;;;;12.60;8.20;;;;;;;;;;5001217;28;20451;-95
2022/03/01 08:59:44;;;;;;;11.43;8.00;;;;;;;;;;5034976;28;20453;-91
2022/03/01 09:02:11;;;;;;;14.30;9.20;;;;;;;;;;5034726;28;20439;-88
2022/03/01 09:04:38;;;;;;;13.20;8.70;;;;;;;;;;5035194;28;20826;-87
2022/03/01 09:07:05;;;;;;;11.83;8.60;;;;;;;;;;5034158;28;20483;-87
2022/03/01 09:09:33;;;;;;;13.60;8.90;;;;;;;;;;5034024;28;20452;-87
2022/03/01 09:12:00;;;;;;;12.23;9.03;;;;;;;;;;5035568;28;20458;-87
2022/03/01 09:14:29;;;;;;;13.57;8.80;;;;;;;;;;5036134;28;20455;-92
2022/03/01 09:16:56;;;;;;;11.90;7.83;;;;;;;;;;5036529;28;20456;-88
2022/03/01 09:19:23;;;;;;;12.57;8.03;;;;;;;;;;5037657;28;20491;-91
2022/03/01 09:21:50;;;;;;;11.60;8.90;;;;;;;;;;5033500;28;20456;-86
2022/03/01 09:24:18;;;;;;;11.47;8.20;;;;;;;;;;5033369;28;20456;-87
2022/03/01 09:26:45;;;;;;;13.77;9.63;;;;;;;;;;5033176;28;20990;-87
2022/03/01 09:29:12;;;;;;;8.50;6.63;;;;;;;;;;5033472;28;20487;-90
2022/03/01 09:31:40;;;;;;;10.60;8.40;;;7.80;75.60;;;;;;5033286;28;20444;-88
2022/03/01 09:34:07;;;;;;;11.10;8.57;;;;;;;;;;5035037;28;20432;-88
2022/03/01 09:36:35;;;;;;;15.20;8.17;;;;;;;;;;5035797;28;20452;-86
2022/03/01 09:39:02;;;;;;;14.17;8.83;;;;;;;;;;5032388;28;20443;-87
2022/03/01 09:41:30;;;;;;;12.40;8.57;;;;;;;;;;5032638;28;20501;-87
2022/03/01 09:43:58;;;;;;;13.73;8.80;;;9.10;68.80;;;;;;5032867;28;20458;-87
2022/03/01 09:46:25;;;;;;;12.27;8.77;;;;;;;;;;5034995;28;21020;-88
2022/03/01 09:48:54;;;;;;;9.63;7.93;;;9.70;66.30;;;;;;5037247;28;20495;-87
2022/03/01 09:51:22;;;;;;;11.47;8.33;;;8.70;91.30;;;;;;5033864;28;20545;-87
2022/03/01 09:53:51;;;;;;;16.30;9.80;;;9.50;64.60;;;;;;5037416;28;20447;-88
2022/03/01 09:56:19;;;;;;;11.00;9.10;;;9.20;65.70;;;;;;5046656;28;20461;-94
2022/03/01 09:58:55;;;;;;;11.60;9.47;;;;;;;;;;5044370;28;20460;-96
2022/03/01 10:04:13;;;;;;;11.10;7.93;;;;;;;;;;5048840;28;20475;-96
2022/03/01 10:06:44;;;;;;;13.37;8.40;;;;;;;;;;5045790;28;20523;-94
2022/03/01 10:09:29;;;;;;;9.13;7.47;;;9.60;63.30;;;;;;5051321;28;20449;-95
2022/03/01 10:12:00;;;;;;;11.20;8.30;;;;;;;;;;5056113;28;20467;-93
2022/03/01 10:14:34;;;;;;;14.80;9.47;;;;;;;;;;5057458;28;20442;-95
2022/03/01 10:17:22;;;;;;;10.33;8.07;;;;;;;;;;5084836;22;20562;-92
2022/03/01 10:20:01;;;;;;;12.33;8.60;;;;;;;;;;5056607;28;20464;-94
2022/03/01 10:22:28;;;;;;;11.47;8.43;;;;;;;;;;5055228;28;21142;-93
2022/03/01 10:24:55;;;;;;;15.33;8.20;;;;;;;;;;5039300;28;20440;-93
2022/03/01 10:27:28;;;;;;;11.77;8.90;;;10.10;59.60;;;;;;5038310;28;20483;-93
2022/03/01 10:29:56;;;;;;;10.67;7.17;;;;;;;;;;5022311;28;20483;-94
2022/03/01 10:32:24;;;;;;;10.67;7.50;;;;;;;;;;5020763;28;20460;-89
2022/03/01 10:35:03;;;;;;;11.97;8.50;;;10.40;57.30;;;;;;5058604;22;20524;-90
2022/03/01 10:37:32;;;;;;;11.77;7.43;;;9.60;59.60;;;;;;5060704;28;20469;-91
2022/03/01 10:40:21;;;;;;;11.40;7.67;;;10.50;58.70;;;;;;5058173;28;20458;-95
2022/03/01 10:42:59;;;;;;;11.40;9.30;;;10.30;59.00;;;;;;5059880;28;20482;-94
2022/03/01 10:45:32;;;;;;;10.10;7.43;;;;;;;;;;5059670;28;20907;-94
2022/03/01 10:47:59;;;;;;;11.30;7.97;;;;;;;;;;5063495;28;20535;-95
2022/03/01 10:50:28;;;;;;;14.23;8.30;;;;;;;;;;5013668;28;20477;-95
2022/03/01 10:52:56;;;;;;;10.10;8.40;;;;;;;;;;4963338;28;20455;-95
2022/03/01 10:55:25;;;;;;;12.30;8.73;;;;;;;;;;4961133;29;21099;-95
2022/03/01 10:58:08;;;;;;;12.97;8.10;;;;;;;;;;4966686;28;20459;-95
2022/03/01 11:00:36;;;;;;;11.77;8.40;;;;;;;;;;4964862;29;20456;-96
2022/03/01 11:03:08;;;;;;;10.77;8.80;;;;;;;;;;4969639;28;20456;-96
2022/03/01 11:05:47;;;;;;;12.13;8.93;;;;;;;;;;4961722;29;20538;-91
2022/03/01 11:08:17;;;;;;;10.67;6.80;;;;;;;;;;4984441;28;20476;-91
2022/03/01 11:10:45;;;;;;;16.90;12.20;;;9.10;58.80;;;;;;5024168;28;20458;-92
2022/03/01 11:13:13;;;;;;;13.00;8.53;;;9.50;59.10;;;;;;5022747;28;20456;-91
2022/03/01 11:15:54;;;;;;;9.37;7.37;;;9.90;58.50;;;;;;5022053;28;20444;-91
2022/03/01 11:18:35;;;;;;;9.77;7.63;;;10.00;57.70;;;;;;5019507;28;20444;-92
2022/03/01 11:21:06;;;;;;;9.30;7.33;;;10.30;55.50;;;;;;5023679;28;20456;-91
2022/03/01 11:23:33;;;;;;;12.10;8.13;;;;;;;;;;5024379;28;20448;-91
2022/03/01 11:26:08;;;;;;;18.43;8.40;;;11.30;56.10;;;;;;5023751;28;20444;-93
2022/03/01 11:28:40;;;;;;;13.50;10.90;;;;;;;;;;5019900;28;20475;-91
2022/03/01 11:31:20;;;;;;;12.23;7.17;;;12.20;52.60;;;;;;5039156;28;20455;-93
2022/03/01 11:33:58;;;;;;;10.87;8.10;;;11.80;51.60;;;;;;5037174;28;20491;-93
2022/03/01 11:36:29;;;;;;;12.03;9.73;;;10.30;52.30;;;;;;5046278;22;20787;-90
2022/03/01 11:39:09;;;;;;;13.23;8.13;;;9.30;54.60;;;;;;5038318;28;20451;-90
2022/03/01 11:44:32;;;;;;;13.70;7.87;;;;;;;;;;5011616;28;20464;-87
2022/03/01 11:47:02;;;;;;;9.40;8.10;;;;;;;;;;5022817;28;20457;-88
2022/03/01 11:49:35;;;;;;;8.97;7.27;;;9.50;54.40;;;;;;5031300;28;20517;-88
2022/03/01 11:52:17;;;;;;;9.47;7.63;;;10.50;81.60;;;;;;5036970;28;20850;-89
2022/03/01 11:54:47;;;;;;;11.73;8.33;;;10.80;52.00;;;;;;5043443;23;20522;-88
2022/03/01 11:57:15;;;;;;;9.30;6.60;;;10.00;49.70;;;;;;5052161;23;20516;-88
2022/03/01 11:59:43;;;;;;;9.13;7.10;;;11.00;50.50;;;;;;5059633;28;21129;-89
2022/03/01 12:02:12;;;;;;;14.90;13.40;;;11.60;49.30;;;;;;5055298;28;20447;-89
2022/03/01 12:04:47;;;;;;;8.17;6.20;;;11.40;82.10;;;;;;5057691;28;20454;-88
2022/03/01 12:07:24;;;;;;;9.97;5.90;;;11.30;45.90;;;;;;5060153;28;20462;-94
2022/03/01 12:09:55;;;;;;;7.83;5.27;;;11.40;44.60;;;;;;5057939;28;20442;-93
2022/03/01 12:12:33;;;;;;;7.00;5.10;;;11.90;44.40;;;;;;5057029;28;20477;-93
2022/03/01 12:15:00;;;;;;;6.43;5.30;;;;;;;;;;5056158;28;20969;-93
2022/03/01 12:17:27;;;;;;;6.17;4.97;;;;;;;;;;5059522;28;20481;-92
2022/03/01 12:20:00;;;;;;;8.13;5.63;;;10.40;40.40;;;;;;5061208;28;20450;-94
2022/03/01 12:22:29;;;;;;;8.60;5.37;;;11.00;40.30;;;;;;5056917;28;20950;-91
2022/03/01 12:24:57;;;;;;;7.10;4.73;;;10.90;40.00;;;;;;5055533;28;21029;-93
2022/03/01 12:27:30;;;;;;;7.13;5.27;;;11.10;41.80;;;;;;5056747;28;20438;-93
2022/03/01 12:30:02;;;;;;;7.50;5.77;;;11.20;43.10;;;;;;5058734;28;20446;-96
2022/03/01 12:32:33;;;;;;;8.63;6.27;;;10.40;66.90;;;;;;5060010;22;20457;-92
2022/03/01 12:35:02;;;;;;;8.97;6.80;;;9.80;46.60;;;;;;5052883;28;20459;-93
2022/03/01 12:37:30;;;;;;;9.37;6.30;;;10.10;77.60;;;;;;5056853;28;20488;-93
2022/03/01 12:39:58;;;;;;;8.83;6.40;;;;;;;;;;5054323;28;20443;-92
2022/03/01 12:42:27;;;;;;;8.30;5.90;;;;;;;;;;5059755;28;20449;-92
2022/03/01 12:44:54;;;;;;;8.07;5.80;;;11.00;75.50;;;;;;5052957;28;20446;-95
2022/03/01 12:47:23;;;;;;;7.57;5.83;;;11.80;44.40;;;;;;5068773;28;20481;-92
2022/03/01 12:49:50;;;;;;;15.63;6.40;;;12.60;44.60;;;;;;5067098;28;20478;-94
2022/03/01 12:54:48;;;;;;;10.73;7.53;;;;;;;;;;5065211;22;20505;-94
2022/03/01 12:57:20;;;;;;;8.60;6.27;;;12.00;46.40;;;;;;5061568;28;20208;-95
2022/03/01 12:59:48;;;;;;;9.23;6.73;;;;;;;;;;5059179;28;20494;-94
2022/03/01 13:02:17;;;;;;;11.63;7.40;;;11.10;44.90;;;;;;5057100;28;20466;-92
2022/03/01 13:07:30;;;;;;;7.47;6.20;;;;;;;;;;5069391;22;20478;-89
2022/03/01 13:10:03;;;;;;;7.43;6.13;;;11.20;44.40;;;;;;5062676;28;20442;-92
2022/03/01 13:12:30;;;;;;;10.00;5.77;;;;;;;;;;5061689;28;20447;-95
2022/03/01 13:14:57;;;;;;;10.13;5.83;;;;;;;;;;5059140;28;20461;-94
2022/03/01 13:17:24;;;;;;;7.40;5.87;;;;;;;;;;5053342;28;20465;-90
2022/03/01 13:19:51;;;;;;;9.30;7.13;;;;;;;;;;5054691;28;20824;-89
2022/03/01 13:22:19;;;;;;;7.13;5.70;;;;;;;;;;5048309;28;20477;-92
2022/03/01 13:24:51;;;;;;;7.97;6.43;;;10.60;47.30;;;;;;5056711;28;20479;-92
2022/03/01 13:27:22;;;;;;;8.80;6.90;;;10.70;47.80;;;;;;5061831;28;20454;-90
2022/03/01 13:29:50;;;;;;;8.87;6.10;;;10.70;74.30;;;;;;5050885;28;20505;-89
2022/03/01 13:32:21;;;;;;;9.27;5.80;;;10.60;45.60;;;;;;5054766;28;20454;-90
2022/03/01 13:34:52;;;;;;;7.43;6.30;;;9.90;46.20;;;;;;5082614;28;20438;-88
2022/03/01 13:37:21;;;;;;;8.23;6.37;;;9.10;48.00;;;;;;5083191;28;20786;-88
2022/03/01 13:39:51;;;;;;;9.80;6.87;;;9.40;48.10;;;;;;5082200;28;20442;-92
2022/03/01 13:42:20;;;;;;;10.67;6.93;;;9.00;47.50;;;;;;5078031;28;20449;-92
2022/03/01 13:44:51;;;;;;;10.20;6.13;;;9.30;48.00;;;;;;5080616;28;20788;-89
2022/03/01 13:47:19;;;;;;;8.37;6.57;;;9.20;49.40;;;;;;5078383;28;20446;-89
2022/03/01 13:49:54;;;;;;;7.50;6.10;;;9.20;50.50;;;;;;5077889;28;20489;-90
2022/03/01 13:52:23;;;;;;;10.10;6.60;;;9.30;50.00;;;;;;5081399;28;20460;-88
2022/03/01 13:54:59;;;;;;;8.23;6.10;;;9.60;50.20;;;;;;5081023;28;20450;-88
2022/03/01 13:57:30;;;;;;;9.93;7.53;;;9.30;48.40;;;;;;5079320;28;20441;-90
2022/03/01 14:00:00;;;;;;;9.83;6.70;;;9.40;49.00;;;;;;5082220;28;20456;-89
2022/03/01 14:02:27;;;;;;;8.20;5.73;;;;;;;;;;5086550;22;20437;-90
2022/03/01 14:04:59;;;;;;;8.63;7.00;;;9.20;48.90;;;;;;5058107;28;20462;-90
2022/03/01 14:07:26;;;;;;;8.40;6.57;;;;;;;;;;5040136;28;20447;-90
2022/03/01 14:09:53;;;;;;;9.67;7.10;;;;;;;;;;5040419;28;20495;-89
2022/03/01 14:12:33;;;;;;;10.87;6.70;;;10.60;47.50;;;;;;5038799;28;20818;-88
2022/03/01 14:15:00;;;;;;;8.80;6.70;;;;;;;;;;5039698;28;20451;-90